createdAt,value
2018-01-26T00:01:12.009Z,6.81
2018-01-26T00:02:39.239Z,6.76
2018-01-26T00:04:06.437Z,6.70
2018-01-26T00:05:34.701Z,6.64
2018-01-26T00:07:00.791Z,6.56
2018-01-26T00:08:28.403Z,6.50
2018-01-26T00:09:55.678Z,6.46
2018-01-26T00:11:22.914Z,6.37
2018-01-26T00:12:50.188Z,6.31
2018-01-26T00:14:18.352Z,6.27
2018-01-26T00:15:44.534Z,6.27
2018-01-26T00:17:11.685Z,6.30
2018-01-26T00:18:38.892Z,6.35
2018-01-26T00:20:06.177Z,6.41
2018-01-26T00:21:33.571Z,6.45
2018-01-26T00:23:00.427Z,6.50
2018-01-26T00:24:28.792Z,6.54
2018-01-26T00:25:55.196Z,6.59
2018-01-26T00:27:23.278Z,6.63
2018-01-26T00:28:50.613Z,6.66
2018-01-26T00:30:16.947Z,6.71
2018-01-26T00:31:45.190Z,6.74
2018-01-26T00:33:11.541Z,6.78
2018-01-26T00:34:39.941Z,6.80
2018-01-26T00:36:06.009Z,6.81
2018-01-26T00:37:34.224Z,6.81
2018-01-26T00:39:00.239Z,6.82
2018-01-26T00:40:27.459Z,6.83
2018-01-26T00:41:54.817Z,6.84
2018-01-26T00:43:21.990Z,6.83
2018-01-26T00:44:49.239Z,6.79
2018-01-26T00:46:16.499Z,6.70
2018-01-26T00:47:43.843Z,6.59
2018-01-26T00:49:11.103Z,6.45
2018-01-26T00:50:38.349Z,6.35
2018-01-26T00:52:05.332Z,6.26
2018-01-26T00:53:32.485Z,6.23
2018-01-26T00:54:59.919Z,6.23
2018-01-26T00:56:28.193Z,6.27
2018-01-26T00:57:54.417Z,6.32
2018-01-26T00:59:22.860Z,6.36
2018-01-26T01:00:50.030Z,6.42
2018-01-26T01:02:16.111Z,6.44
2018-01-26T01:03:44.284Z,6.45
2018-01-26T01:05:10.674Z,6.45
2018-01-26T01:06:37.944Z,6.43
2018-01-26T01:08:05.241Z,6.40
2018-01-26T01:09:32.270Z,6.38
2018-01-26T01:10:59.446Z,6.36
2018-01-26T01:12:26.754Z,6.34
2018-01-26T01:13:54.015Z,6.33
2018-01-26T01:15:21.062Z,6.37
2018-01-26T01:16:49.409Z,6.41
2018-01-26T01:18:15.747Z,6.45
2018-01-26T01:19:43.990Z,6.50
2018-01-26T01:21:10.315Z,6.53
2018-01-26T01:22:37.574Z,6.56
2018-01-26T01:24:04.899Z,6.59
2018-01-26T01:25:31.997Z,6.61
2018-01-26T01:26:59.267Z,6.63
2018-01-26T01:28:27.383Z,6.65
2018-01-26T01:29:53.825Z,6.65
2018-01-26T01:31:22.124Z,6.67
2018-01-26T01:32:48.442Z,6.68
2018-01-26T01:34:15.739Z,6.68
2018-01-26T01:35:43.002Z,6.67
2018-01-26T01:37:11.385Z,6.64
2018-01-26T01:38:37.400Z,6.62
2018-01-26T01:40:04.583Z,6.59
2018-01-26T01:41:31.700Z,6.59
2018-01-26T01:42:59.134Z,6.61
2018-01-26T01:44:27.323Z,6.61
2018-01-26T01:45:53.714Z,6.58
2018-01-26T01:47:21.041Z,6.53
2018-01-26T01:48:48.342Z,6.50
2018-01-26T01:50:15.700Z,6.45
2018-01-26T01:51:42.960Z,6.42
2018-01-26T01:53:10.125Z,6.41
2018-01-26T01:54:37.331Z,6.43
2018-01-26T01:56:04.624Z,6.46
2018-01-26T01:57:32.882Z,6.50
2018-01-26T01:59:00.123Z,6.51
2018-01-26T02:00:27.150Z,6.52
2018-01-26T02:01:53.336Z,6.51
2018-01-26T02:03:20.817Z,6.50
2018-01-26T02:04:49.124Z,6.51
2018-01-26T02:06:16.289Z,6.54
2018-01-26T02:07:42.764Z,6.54
2018-01-26T02:09:10.081Z,6.56
2018-01-26T02:10:37.398Z,6.58
2018-01-26T02:12:05.521Z,6.60
2018-01-26T02:13:31.697Z,6.63
2018-01-26T02:14:59.043Z,6.66
2018-01-26T02:16:26.014Z,6.69
2018-01-26T02:17:53.392Z,6.72
2018-01-26T02:19:27.482Z,6.75
2018-01-26T02:20:48.114Z,6.77
2018-01-26T02:22:15.383Z,6.80
2018-01-26T02:23:42.739Z,6.83
2018-01-26T02:25:10.029Z,6.85
2018-01-26T02:26:38.570Z,6.86
2018-01-26T02:28:04.534Z,6.86
2018-01-26T02:29:31.870Z,6.85
2018-01-26T02:30:59.924Z,6.84
2018-01-26T02:32:26.057Z,6.84
2018-01-26T02:33:54.379Z,6.82
2018-01-26T02:35:21.672Z,6.80
2018-01-26T02:36:47.923Z,6.78
2018-01-26T02:38:16.024Z,6.78
2018-01-26T02:39:43.206Z,6.75
2018-01-26T02:41:10.013Z,6.77
2018-01-26T02:42:37.047Z,6.79
2018-01-26T02:44:03.093Z,6.82
2018-01-26T02:45:30.373Z,6.83
2018-01-26T02:47:00.570Z,6.85
2018-01-26T02:48:25.035Z,6.88
2018-01-26T02:49:58.240Z,6.90
2018-01-26T02:51:19.390Z,6.90
2018-01-26T02:52:46.652Z,6.91
2018-01-26T02:54:13.892Z,6.91
2018-01-26T02:55:41.161Z,6.89
2018-01-26T02:57:09.392Z,6.86
2018-01-26T02:58:36.521Z,6.83
2018-01-26T03:00:02.836Z,6.80
2018-01-26T03:01:29.945Z,6.77
2018-01-26T03:02:58.216Z,6.77
2018-01-26T03:04:24.345Z,6.79
2018-01-26T03:05:52.512Z,6.82
2018-01-26T03:07:18.866Z,6.85
2018-01-26T03:08:46.158Z,6.87
2018-01-26T03:10:13.264Z,6.89
2018-01-26T03:11:41.603Z,6.92
2018-01-26T03:13:07.819Z,6.94
2018-01-26T03:14:34.962Z,6.96
2018-01-26T03:16:02.172Z,6.99
2018-01-26T03:17:30.468Z,6.99
2018-01-26T03:18:56.798Z,7.00
2018-01-26T03:20:25.271Z,6.99
2018-01-26T03:21:52.603Z,6.97
2018-01-26T03:23:18.886Z,6.97
2018-01-26T03:24:47.168Z,6.95
2018-01-26T03:26:13.545Z,6.94
2018-01-26T03:27:40.818Z,6.95
2018-01-26T03:29:08.075Z,6.94
2018-01-26T03:30:36.299Z,6.94
2018-01-26T03:32:02.492Z,6.95
2018-01-26T03:33:29.915Z,6.96
2018-01-26T03:34:58.262Z,6.96
2018-01-26T03:36:24.442Z,6.95
2018-01-26T03:37:51.609Z,6.96
2018-01-26T03:39:18.872Z,6.96
2018-01-26T03:40:46.192Z,6.94
2018-01-26T03:42:13.547Z,6.93
2018-01-26T03:43:40.826Z,6.91
2018-01-26T03:45:08.083Z,6.90
2018-01-26T03:46:36.222Z,6.88
2018-01-26T03:48:03.427Z,6.87
2018-01-26T03:49:30.744Z,6.83
2018-01-26T03:50:56.853Z,6.80
2018-01-26T03:52:25.148Z,6.78
2018-01-26T03:53:51.315Z,6.76
2018-01-26T03:55:18.732Z,6.76
2018-01-26T03:56:46.017Z,6.77
2018-01-26T03:58:13.387Z,6.76
2018-01-26T03:59:41.745Z,6.73
2018-01-26T04:01:09.071Z,6.70
2018-01-26T04:02:35.153Z,6.68
2018-01-26T04:04:03.446Z,6.67
2018-01-26T04:05:29.391Z,6.67
2018-01-26T04:06:57.346Z,6.69
2018-01-26T04:08:24.778Z,6.73
2018-01-26T04:09:51.014Z,6.74
2018-01-26T04:11:19.195Z,6.76
2018-01-26T04:12:45.529Z,6.76
2018-01-26T04:14:12.700Z,6.78
2018-01-26T04:15:40.026Z,6.79
2018-01-26T04:17:07.292Z,6.79
2018-01-26T04:18:34.602Z,6.78
2018-01-26T04:20:01.862Z,6.77
2018-01-26T04:21:29.113Z,6.75
2018-01-26T04:22:56.380Z,6.75
2018-01-26T04:24:23.536Z,6.75
2018-01-26T04:25:50.909Z,6.74
2018-01-26T04:27:18.375Z,6.72
2018-01-26T04:28:45.540Z,6.70
2018-01-26T04:30:12.778Z,6.68
2018-01-26T04:31:40.043Z,6.69
2018-01-26T04:33:08.432Z,6.73
2018-01-26T04:34:34.278Z,6.77
2018-01-26T04:36:01.343Z,6.79
2018-01-26T04:37:29.778Z,6.83
2018-01-26T04:38:56.009Z,6.86
2018-01-26T04:40:24.170Z,6.89
2018-01-26T04:41:51.427Z,6.91
2018-01-26T04:43:17.578Z,6.92
2018-01-26T04:44:45.885Z,6.93
2018-01-26T04:46:12.118Z,6.94
2018-01-26T04:47:39.287Z,6.94
2018-01-26T04:49:06.449Z,6.91
2018-01-26T04:50:33.735Z,6.91
2018-01-26T04:52:00.880Z,6.91
2018-01-26T04:53:28.307Z,6.91
2018-01-26T04:54:55.593Z,6.91
2018-01-26T04:56:23.674Z,6.93
2018-01-26T04:57:50.064Z,6.94
2018-01-26T04:59:18.402Z,6.95
2018-01-26T05:00:44.561Z,6.94
2018-01-26T05:02:12.764Z,6.93
2018-01-26T05:03:38.986Z,6.92
2018-01-26T05:05:06.047Z,6.92
2018-01-26T05:06:33.206Z,6.91
2018-01-26T05:08:00.497Z,6.92
2018-01-26T05:09:27.799Z,6.92
2018-01-26T05:10:55.937Z,6.92
2018-01-26T05:12:21.940Z,6.92
2018-01-26T05:13:50.429Z,6.90
2018-01-26T05:15:17.770Z,6.87
2018-01-26T05:16:44.045Z,6.86
2018-01-26T05:18:12.202Z,6.82
2018-01-26T05:19:38.516Z,6.81
2018-01-26T05:21:05.737Z,6.80
2018-01-26T05:22:33.016Z,6.82
2018-01-26T05:24:00.175Z,6.83
2018-01-26T05:25:27.205Z,6.85
2018-01-26T05:26:54.602Z,6.87
2018-01-26T05:28:21.946Z,6.89
2018-01-26T05:29:49.259Z,6.88
2018-01-26T05:31:17.628Z,6.90
2018-01-26T05:32:44.816Z,6.90
2018-01-26T05:34:11.256Z,6.91
2018-01-26T05:35:38.471Z,6.91
2018-01-26T05:37:05.735Z,6.85
2018-01-26T05:38:33.941Z,6.80
2018-01-26T05:39:59.888Z,6.77
2018-01-26T05:41:27.133Z,6.79
2018-01-26T05:42:54.342Z,6.82
2018-01-26T05:44:21.685Z,6.84
2018-01-26T05:45:48.856Z,6.87
2018-01-26T05:47:16.221Z,6.90
2018-01-26T05:48:44.456Z,6.91
2018-01-26T05:50:10.764Z,6.93
2018-01-26T05:51:38.035Z,6.94
2018-01-26T05:53:05.302Z,6.94
2018-01-26T05:54:32.608Z,6.93
2018-01-26T05:55:59.893Z,6.92
2018-01-26T05:57:27.150Z,6.90
2018-01-26T05:58:54.456Z,6.89
2018-01-26T06:00:22.587Z,6.89
2018-01-26T06:01:48.922Z,6.89
2018-01-26T06:03:16.278Z,6.90
2018-01-26T06:04:43.467Z,6.90
2018-01-26T06:06:10.911Z,6.91
2018-01-26T06:07:38.225Z,6.92
2018-01-26T06:09:05.567Z,6.94
2018-01-26T06:10:32.868Z,6.95
2018-01-26T06:12:00.802Z,6.95
2018-01-26T06:13:27.000Z,6.94
2018-01-26T06:14:54.248Z,6.94
2018-01-26T06:16:21.492Z,6.93
2018-01-26T06:17:48.728Z,6.92
2018-01-26T06:19:17.020Z,6.91
2018-01-26T06:20:43.166Z,6.90
2018-01-26T06:22:11.509Z,6.88
2018-01-26T06:23:37.853Z,6.88
2018-01-26T06:25:05.029Z,6.88
2018-01-26T06:26:33.295Z,6.87
2018-01-26T06:27:59.579Z,6.86
2018-01-26T06:29:27.830Z,6.86
2018-01-26T06:30:54.181Z,6.84
2018-01-26T06:32:21.521Z,6.81
2018-01-26T06:33:49.853Z,6.81
2018-01-26T06:35:16.052Z,6.81
2018-01-26T06:36:43.353Z,6.80
2018-01-26T06:38:10.676Z,6.81
2018-01-26T06:39:38.923Z,6.80
2018-01-26T06:41:05.173Z,6.80
2018-01-26T06:42:32.516Z,6.80
2018-01-26T06:43:59.645Z,6.80
2018-01-26T06:45:26.812Z,6.80
2018-01-26T06:46:55.265Z,6.79
2018-01-26T06:48:21.472Z,6.79
2018-01-26T06:49:48.752Z,6.79
2018-01-26T06:51:15.920Z,6.77
2018-01-26T06:52:43.225Z,6.72
2018-01-26T06:54:10.358Z,6.66
2018-01-26T06:55:37.641Z,6.61
2018-01-26T06:57:04.821Z,6.56
2018-01-26T06:58:32.974Z,6.56
2018-01-26T06:59:59.297Z,6.58
2018-01-26T07:01:26.673Z,6.56
2018-01-26T07:02:53.799Z,6.56
2018-01-26T07:04:20.967Z,6.51
2018-01-26T07:05:48.336Z,6.45
2018-01-26T07:07:15.724Z,6.46
2018-01-26T07:08:43.045Z,6.49
2018-01-26T07:10:10.353Z,6.51
2018-01-26T07:11:37.612Z,6.55
2018-01-26T07:13:04.684Z,6.59
2018-01-26T07:14:32.032Z,6.57
2018-01-26T07:16:00.273Z,6.54
2018-01-26T07:17:26.588Z,6.52
2018-01-26T07:18:53.891Z,6.50
2018-01-26T07:20:21.163Z,6.47
2018-01-26T07:21:49.200Z,6.45
2018-01-26T07:23:15.604Z,6.44
2018-01-26T07:24:43.822Z,6.45
2018-01-26T07:26:10.874Z,6.46
2018-01-26T07:27:37.221Z,6.47
2018-01-26T07:29:05.331Z,6.45
2018-01-26T07:30:31.645Z,6.45
2018-01-26T07:31:58.947Z,6.44
2018-01-26T07:33:26.233Z,6.43
2018-01-26T07:34:53.558Z,6.42
2018-01-26T07:36:20.696Z,6.39
2018-01-26T07:37:47.898Z,6.37
2018-01-26T07:39:14.880Z,6.36
2018-01-26T07:40:42.133Z,6.40
2018-01-26T07:42:09.476Z,6.44
2018-01-26T07:43:37.849Z,6.47
2018-01-26T07:45:04.216Z,6.48
2018-01-26T07:46:32.478Z,6.49
2018-01-26T07:47:58.766Z,6.52
2018-01-26T07:49:26.136Z,6.54
2018-01-26T07:50:53.411Z,6.57
2018-01-26T07:52:21.837Z,6.59
2018-01-26T07:53:48.921Z,6.63
2018-01-26T07:55:15.226Z,6.65
2018-01-26T07:56:42.375Z,6.67
2018-01-26T07:58:09.582Z,6.68
2018-01-26T07:59:36.826Z,6.71
2018-01-26T08:01:04.157Z,6.72
2018-01-26T08:02:31.157Z,6.73
2018-01-26T08:03:58.460Z,6.74
2018-01-26T08:05:26.605Z,6.75
2018-01-26T08:06:52.841Z,6.76
2018-01-26T08:08:20.050Z,6.74
2018-01-26T08:09:48.430Z,6.75
2018-01-26T08:11:14.758Z,6.77
2018-01-26T08:12:42.121Z,6.79
2018-01-26T08:14:10.381Z,6.80
2018-01-26T08:15:36.464Z,6.83
2018-01-26T08:17:03.744Z,6.85
2018-01-26T08:18:30.625Z,6.85
2018-01-26T08:19:57.985Z,6.85
2018-01-26T08:21:24.812Z,6.87
2018-01-26T08:22:52.200Z,6.89
2018-01-26T08:24:20.466Z,6.90
2018-01-26T08:25:46.650Z,6.92
2018-01-26T08:27:13.918Z,6.94
2018-01-26T08:28:41.062Z,6.95
2018-01-26T08:30:08.302Z,6.96
2018-01-26T08:31:35.590Z,6.97
2018-01-26T08:33:02.428Z,6.99
2018-01-26T08:34:29.601Z,7.00
2018-01-26T08:35:57.870Z,7.03
2018-01-26T08:37:25.237Z,7.04
2018-01-26T08:38:52.678Z,7.04
2018-01-26T08:40:19.764Z,7.07
2018-01-26T08:41:47.082Z,7.08
2018-01-26T08:43:13.296Z,7.09
2018-01-26T08:44:40.581Z,7.09
2018-01-26T08:46:07.741Z,7.09
2018-01-26T08:47:35.790Z,7.08
2018-01-26T08:49:02.073Z,7.09
2018-01-26T08:50:29.147Z,7.09
2018-01-26T08:51:56.536Z,7.09
2018-01-26T08:53:23.951Z,7.10
2018-01-26T08:54:51.100Z,7.11
2018-01-26T08:56:18.383Z,7.11
2018-01-26T08:57:45.749Z,7.12
2018-01-26T08:59:14.111Z,7.13
2018-01-26T09:00:40.483Z,7.14
2018-01-26T09:02:07.706Z,7.16
2018-01-26T09:03:36.059Z,7.18
2018-01-26T09:05:02.173Z,7.20
2018-01-26T09:06:29.393Z,7.20
2018-01-26T09:07:56.781Z,7.19
2018-01-26T09:09:24.947Z,7.20
2018-01-26T09:10:51.036Z,7.21
2018-01-26T09:12:21.526Z,7.21
2018-01-26T09:13:45.603Z,7.22
2018-01-26T09:15:13.551Z,7.22
2018-01-26T09:16:39.732Z,7.23
2018-01-26T09:18:06.845Z,7.25
2018-01-26T09:19:34.190Z,7.26
2018-01-26T09:21:02.429Z,7.28
2018-01-26T09:22:28.772Z,7.29
2018-01-26T09:23:55.957Z,7.32
2018-01-26T09:25:23.407Z,7.34
2018-01-26T09:26:50.727Z,7.37
2018-01-26T09:28:17.976Z,7.39
2018-01-26T09:29:45.278Z,7.41
2018-01-26T09:31:12.717Z,7.42
2018-01-26T09:32:39.949Z,7.42
2018-01-26T09:34:08.263Z,7.43
2018-01-26T09:35:34.192Z,7.43
2018-01-26T09:37:01.567Z,7.44
2018-01-26T09:38:28.852Z,7.46
2018-01-26T09:39:56.046Z,7.46
2018-01-26T09:41:23.405Z,7.43
2018-01-26T09:42:44.532Z,7.39
2018-01-26T09:44:18.803Z,7.38
2018-01-26T09:45:48.124Z,7.34
2018-01-26T09:47:13.529Z,7.31
2018-01-26T09:48:40.758Z,7.31
2018-01-26T09:50:08.057Z,7.33
2018-01-26T09:51:34.217Z,7.35
2018-01-26T09:53:02.344Z,7.38
2018-01-26T09:54:28.685Z,7.39
2018-01-26T09:55:57.076Z,7.42
2018-01-26T09:57:24.280Z,7.45
2018-01-26T09:58:51.639Z,7.48
2018-01-26T10:00:17.972Z,7.50
2018-01-26T10:01:46.156Z,7.53
2018-01-26T10:03:12.362Z,7.55
2018-01-26T10:04:39.559Z,7.55
2018-01-26T10:06:06.750Z,7.54
2018-01-26T10:07:34.063Z,7.54
2018-01-26T10:09:01.237Z,7.56
2018-01-26T10:10:29.173Z,7.58
2018-01-26T10:11:55.649Z,7.60
2018-01-26T10:13:23.024Z,7.61
2018-01-26T10:14:50.521Z,7.64
2018-01-26T10:16:18.776Z,7.65
2018-01-26T10:17:44.953Z,7.67
2018-01-26T10:19:12.207Z,7.69
2018-01-26T10:20:40.407Z,7.73
2018-01-26T10:22:06.697Z,7.74
2018-01-26T10:23:33.843Z,7.76
2018-01-26T10:25:00.864Z,7.78
2018-01-26T10:26:28.222Z,7.79
2018-01-26T10:27:56.669Z,7.79
2018-01-26T10:29:23.958Z,7.79
2018-01-26T10:30:50.269Z,7.76
2018-01-26T10:32:17.520Z,7.76
2018-01-26T10:33:44.777Z,7.77
2018-01-26T10:35:12.126Z,7.79
2018-01-26T10:36:39.218Z,7.82
2018-01-26T10:38:06.429Z,7.82
2018-01-26T10:39:33.792Z,7.79
2018-01-26T10:41:00.989Z,7.80
2018-01-26T10:42:28.325Z,7.77
2018-01-26T10:43:55.584Z,7.78
2018-01-26T10:45:22.830Z,7.76
2018-01-26T10:46:50.131Z,7.77
2018-01-26T10:48:17.350Z,7.73
2018-01-26T10:49:44.687Z,7.69
2018-01-26T10:51:11.947Z,7.71
2018-01-26T10:52:39.182Z,7.73
2018-01-26T10:54:07.444Z,7.76
2018-01-26T10:55:34.476Z,7.78
2018-01-26T10:57:01.461Z,7.79
2018-01-26T10:58:27.914Z,7.73
2018-01-26T10:59:56.259Z,7.70
2018-01-26T11:01:23.555Z,7.67
2018-01-26T11:02:49.997Z,7.69
2018-01-26T11:04:18.276Z,7.71
2018-01-26T11:05:45.667Z,7.74
2018-01-26T11:07:12.847Z,7.78
2018-01-26T11:08:39.151Z,7.82
2018-01-26T11:10:06.454Z,7.85
2018-01-26T11:11:33.742Z,7.90
2018-01-26T11:13:00.890Z,7.93
2018-01-26T11:14:29.073Z,7.96
2018-01-26T11:15:55.356Z,7.99
2018-01-26T11:17:23.698Z,8.02
2018-01-26T11:18:51.076Z,8.05
2018-01-26T11:20:18.158Z,8.08
2018-01-26T11:21:44.796Z,8.12
2018-01-26T11:23:11.145Z,8.11
2018-01-26T11:24:38.307Z,8.13
2018-01-26T11:26:05.715Z,8.13
2018-01-26T11:27:33.882Z,8.16
2018-01-26T11:29:00.109Z,8.19
2018-01-26T11:30:27.298Z,8.19
2018-01-26T11:31:55.629Z,8.22
2018-01-26T11:33:21.892Z,8.24
2018-01-26T11:34:49.292Z,8.27
2018-01-26T11:36:17.567Z,8.31
2018-01-26T11:37:44.875Z,8.31
2018-01-26T11:39:11.140Z,8.28
2018-01-26T11:40:38.442Z,8.29
2018-01-26T11:42:05.743Z,8.30
2018-01-26T11:43:33.009Z,8.31
2018-01-26T11:45:00.103Z,8.35
2018-01-26T11:46:27.528Z,8.37
2018-01-26T11:47:54.654Z,8.39
2018-01-26T11:49:22.063Z,8.42
2018-01-26T11:50:49.413Z,8.44
2018-01-26T11:52:17.811Z,8.46
2018-01-26T11:53:44.856Z,8.49
2018-01-26T11:55:11.081Z,8.50
2018-01-26T11:56:38.489Z,8.52
2018-01-26T11:58:05.630Z,8.54
2018-01-26T11:59:33.053Z,8.56
2018-01-26T12:01:01.098Z,8.57
2018-01-26T12:02:27.382Z,8.56
2018-01-26T12:03:54.510Z,8.54
2018-01-26T12:05:22.683Z,8.52
2018-01-26T12:06:50.195Z,8.50
2018-01-26T12:08:16.274Z,8.50
2018-01-26T12:09:43.655Z,8.52
2018-01-26T12:11:10.940Z,8.53
2018-01-26T12:12:38.192Z,8.55
2018-01-26T12:14:06.387Z,8.57
2018-01-26T12:15:32.782Z,8.60
2018-01-26T12:16:59.757Z,8.56
2018-01-26T12:18:27.055Z,8.56
2018-01-26T12:19:54.347Z,8.58
2018-01-26T12:21:21.523Z,8.60
2018-01-26T12:22:48.798Z,8.56
2018-01-26T12:24:16.037Z,8.58
2018-01-26T12:25:43.316Z,8.56
2018-01-26T12:27:10.554Z,8.53
2018-01-26T12:28:37.853Z,8.53
2018-01-26T12:30:06.258Z,8.50
2018-01-26T12:31:32.410Z,8.50
2018-01-26T12:33:00.819Z,8.51
2018-01-26T12:34:28.183Z,8.53
2018-01-26T12:35:54.548Z,8.47
2018-01-26T12:37:22.941Z,8.40
2018-01-26T12:38:50.301Z,8.38
2018-01-26T12:40:17.691Z,8.37
2018-01-26T12:41:44.855Z,8.33
2018-01-26T12:43:11.042Z,8.32
2018-01-26T12:44:38.359Z,8.30
2018-01-26T12:46:05.555Z,8.30
2018-01-26T12:47:33.899Z,8.29
2018-01-26T12:49:00.053Z,8.31
2018-01-26T12:50:28.389Z,8.35
2018-01-26T12:51:54.647Z,8.34
2018-01-26T12:53:22.933Z,8.29
2018-01-26T12:54:49.280Z,8.26
2018-01-26T12:56:16.502Z,8.26
2018-01-26T12:57:43.883Z,8.29
2018-01-26T12:59:11.162Z,8.32
2018-01-26T13:00:39.499Z,8.30
2018-01-26T13:02:05.848Z,8.27
2018-01-26T13:03:34.106Z,8.29
2018-01-26T13:05:00.084Z,8.32
2018-01-26T13:06:27.393Z,8.33
2018-01-26T13:07:55.780Z,8.33
2018-01-26T13:09:22.944Z,8.32
2018-01-26T13:10:49.290Z,8.33
2018-01-26T13:12:17.627Z,8.34
2018-01-26T13:13:43.836Z,8.36
2018-01-26T13:15:11.031Z,8.39
2018-01-26T13:16:38.139Z,8.39
2018-01-26T13:18:05.231Z,8.34
2018-01-26T13:19:32.583Z,8.35
2018-01-26T13:21:00.818Z,8.37
2018-01-26T13:22:28.192Z,8.37
2018-01-26T13:23:54.524Z,8.34
2018-01-26T13:25:21.813Z,8.35
2018-01-26T13:26:49.082Z,8.32
2018-01-26T13:28:16.276Z,8.34
2018-01-26T13:29:43.621Z,8.30
2018-01-26T13:31:10.940Z,8.30
2018-01-26T13:32:39.084Z,8.31
2018-01-26T13:34:05.058Z,8.34
2018-01-26T13:35:32.388Z,8.37
2018-01-26T13:36:59.778Z,8.39
2018-01-26T13:38:27.157Z,8.41
2018-01-26T13:39:55.559Z,8.41
2018-01-26T13:41:22.148Z,8.39
2018-01-26T13:42:49.125Z,8.37
2018-01-26T13:44:16.715Z,8.38
2018-01-26T13:45:43.050Z,8.40
2018-01-26T13:47:11.347Z,8.40
2018-01-26T13:48:38.723Z,8.39
2018-01-26T13:50:05.817Z,8.33
2018-01-26T13:51:32.183Z,8.30
2018-01-26T13:53:00.319Z,8.29
2018-01-26T13:54:26.745Z,8.27
2018-01-26T13:55:55.060Z,8.25
2018-01-26T13:57:22.162Z,8.26
2018-01-26T13:58:48.406Z,8.28
2018-01-26T14:00:16.879Z,8.29
2018-01-26T14:01:43.141Z,8.29
2018-01-26T14:03:10.604Z,8.32
2018-01-26T14:04:37.643Z,8.34
2018-01-26T14:06:05.915Z,8.35
2018-01-26T14:07:32.010Z,8.31
2018-01-26T14:08:58.848Z,8.27
2018-01-26T14:10:26.264Z,8.23
2018-01-26T14:11:54.536Z,8.18
2018-01-26T14:13:21.688Z,8.16
2018-01-26T14:14:48.804Z,8.13
2018-01-26T14:16:15.165Z,8.12
2018-01-26T14:17:42.467Z,8.11
2018-01-26T14:19:09.822Z,8.08
2018-01-26T14:20:38.103Z,8.05
2018-01-26T14:22:05.163Z,8.04
2018-01-26T14:23:31.468Z,8.07
2018-01-26T14:24:58.840Z,8.10
2018-01-26T14:26:26.093Z,8.14
2018-01-26T14:27:53.243Z,8.17
2018-01-26T14:29:21.651Z,8.20
2018-01-26T14:30:49.055Z,8.22
2018-01-26T14:32:15.351Z,8.23
2018-01-26T14:33:42.464Z,8.24
2018-01-26T14:35:09.758Z,8.25
2018-01-26T14:36:37.145Z,8.25
2018-01-26T14:38:04.091Z,8.27
2018-01-26T14:39:31.277Z,8.28
2018-01-26T14:40:58.338Z,8.29
2018-01-26T14:42:25.354Z,8.29
2018-01-26T14:43:52.704Z,8.29
2018-01-26T14:45:20.002Z,8.29
2018-01-26T14:46:48.343Z,8.30
2018-01-26T14:48:14.383Z,8.31
2018-01-26T14:49:41.660Z,8.32
2018-01-26T14:51:09.994Z,8.32
2018-01-26T14:52:35.976Z,8.31
2018-01-26T14:54:03.049Z,8.31
2018-01-26T14:55:29.977Z,8.32
2018-01-26T14:56:58.211Z,8.32
2018-01-26T14:58:24.314Z,8.33
2018-01-26T14:59:52.504Z,8.32
2018-01-26T15:01:18.778Z,8.32
2018-01-26T15:02:46.185Z,8.32
2018-01-26T15:04:14.425Z,8.32
2018-01-26T15:05:41.559Z,8.33
2018-01-26T15:07:07.915Z,8.33
2018-01-26T15:08:36.243Z,8.34
2018-01-26T15:10:02.345Z,8.35
2018-01-26T15:11:29.571Z,8.35
2018-01-26T15:12:56.833Z,8.36
2018-01-26T15:14:24.081Z,8.35
2018-01-26T15:15:51.304Z,8.35
2018-01-26T15:17:19.676Z,8.34
2018-01-26T15:18:45.802Z,8.33
2018-01-26T15:20:14.101Z,8.32
2018-01-26T15:21:40.357Z,8.32
2018-01-26T15:23:07.498Z,8.30
2018-01-26T15:24:35.674Z,8.29
2018-01-26T15:26:01.650Z,8.29
2018-01-26T15:27:28.970Z,8.29
2018-01-26T15:28:57.266Z,8.28
2018-01-26T15:30:23.452Z,8.28
2018-01-26T15:31:50.640Z,8.27
2018-01-26T15:33:17.814Z,8.28
2018-01-26T15:34:44.875Z,8.28
2018-01-26T15:36:13.174Z,8.28
2018-01-26T15:37:39.076Z,8.27
2018-01-26T15:39:06.319Z,8.27
2018-01-26T15:40:33.272Z,8.25
2018-01-26T15:42:00.325Z,8.24
2018-01-26T15:43:27.546Z,8.21
2018-01-26T15:44:54.802Z,8.16
2018-01-26T15:46:22.065Z,8.13
2018-01-26T15:47:49.116Z,8.13
2018-01-26T15:49:17.354Z,8.14
2018-01-26T15:50:43.252Z,8.15
2018-01-26T15:52:11.286Z,8.15
2018-01-26T15:53:38.494Z,8.15
2018-01-26T15:55:04.765Z,8.15
2018-01-26T15:56:31.934Z,8.13
2018-01-26T15:58:00.041Z,8.10
2018-01-26T15:59:26.373Z,8.11
2018-01-26T16:00:54.513Z,8.07
2018-01-26T16:02:21.688Z,8.05
2018-01-26T16:03:47.794Z,8.05
2018-01-26T16:05:15.182Z,8.06
2018-01-26T16:06:42.580Z,8.07
2018-01-26T16:08:09.475Z,8.08
2018-01-26T16:09:36.792Z,8.10
2018-01-26T16:11:03.868Z,8.11
2018-01-26T16:12:32.129Z,8.12
2018-01-26T16:14:01.432Z,8.11
2018-01-26T16:15:25.342Z,8.11
2018-01-26T16:16:52.791Z,8.08
2018-01-26T16:18:20.159Z,8.06
2018-01-26T16:19:48.399Z,8.06
2018-01-26T16:21:14.445Z,8.05
2018-01-26T16:22:41.413Z,8.06
2018-01-26T16:24:09.680Z,8.05
2018-01-26T16:25:36.148Z,8.02
2018-01-26T16:27:04.364Z,7.97
2018-01-26T16:28:30.715Z,7.96
2018-01-26T16:29:59.074Z,7.95
2018-01-26T16:31:25.391Z,7.93
2018-01-26T16:32:52.680Z,7.90
2018-01-26T16:34:19.457Z,7.86
2018-01-26T16:35:46.929Z,7.81
2018-01-26T16:37:14.044Z,7.78
2018-01-26T16:38:41.339Z,7.78
2018-01-26T16:40:08.553Z,7.78
2018-01-26T16:41:36.633Z,7.77
2018-01-26T16:43:03.939Z,7.75
2018-01-26T16:44:30.127Z,7.72
2018-01-26T16:45:57.257Z,7.71
2018-01-26T16:47:24.498Z,7.71
2018-01-26T16:48:52.668Z,7.67
2018-01-26T16:50:19.994Z,7.66
2018-01-26T16:51:47.162Z,7.63
2018-01-26T16:53:14.201Z,7.64
2018-01-26T16:54:41.692Z,7.66
2018-01-26T16:56:07.853Z,7.69
2018-01-26T16:57:36.107Z,7.70
2018-01-26T16:59:03.362Z,7.71
2018-01-26T17:00:30.744Z,7.68
2018-01-26T17:01:56.961Z,7.68
2018-01-26T17:03:24.204Z,7.67
2018-01-26T17:04:52.146Z,7.66
2018-01-26T17:06:18.520Z,7.58
2018-01-26T17:07:45.673Z,7.56
2018-01-26T17:09:12.956Z,7.56
2018-01-26T17:10:40.287Z,7.59
2018-01-26T17:12:07.397Z,7.59
2018-01-26T17:13:34.481Z,7.60
2018-01-26T17:15:01.715Z,7.56
2018-01-26T17:16:30.183Z,7.54
2018-01-26T17:17:56.468Z,7.50
2018-01-26T17:19:23.736Z,7.48
2018-01-26T17:20:51.100Z,7.46
2018-01-26T17:22:18.318Z,7.42
2018-01-26T17:23:46.727Z,7.43
2018-01-26T17:25:13.016Z,7.45
2018-01-26T17:26:41.431Z,7.44
2018-01-26T17:28:08.591Z,7.46
2018-01-26T17:29:35.799Z,7.48
2018-01-26T17:31:02.903Z,7.48
2018-01-26T17:32:29.507Z,7.48
2018-01-26T17:33:57.831Z,7.48
2018-01-26T17:35:25.279Z,7.44
2018-01-26T17:36:51.502Z,7.44
2018-01-26T17:38:18.861Z,7.41
2018-01-26T17:39:46.014Z,7.38
2018-01-26T17:41:13.053Z,7.35
2018-01-26T17:42:40.349Z,7.33
2018-01-26T17:44:07.316Z,7.31
2018-01-26T17:45:34.579Z,7.34
2018-01-26T17:47:02.675Z,7.36
2018-01-26T17:48:30.030Z,7.40
2018-01-26T17:49:57.324Z,7.43
2018-01-26T17:51:23.624Z,7.41
2018-01-26T17:52:51.059Z,7.40
2018-01-26T17:54:19.467Z,7.42
2018-01-26T17:55:45.840Z,7.42
2018-01-26T17:57:13.116Z,7.41
2018-01-26T17:58:41.258Z,7.35
2018-01-26T18:00:07.099Z,7.37
2018-01-26T18:01:35.329Z,7.39
2018-01-26T18:03:01.701Z,7.38
2018-01-26T18:04:30.044Z,7.39
2018-01-26T18:05:56.406Z,7.42
2018-01-26T18:07:23.602Z,7.44
2018-01-26T18:08:50.876Z,7.41
2018-01-26T18:10:19.116Z,7.35
2018-01-26T18:11:46.374Z,7.30
2018-01-26T18:13:12.690Z,7.29
2018-01-26T18:14:41.097Z,7.26
2018-01-26T18:16:07.396Z,7.28
2018-01-26T18:17:35.535Z,7.27
2018-01-26T18:19:01.904Z,7.25
2018-01-26T18:20:29.804Z,7.26
2018-01-26T18:21:56.957Z,7.28
2018-01-26T18:23:24.252Z,7.30
2018-01-26T18:24:51.565Z,7.30
2018-01-26T18:26:17.740Z,7.30
2018-01-26T18:27:45.160Z,7.27
2018-01-26T18:29:12.101Z,7.21
2018-01-26T18:30:39.438Z,7.18
2018-01-26T18:32:06.610Z,7.19
2018-01-26T18:33:34.663Z,7.20
2018-01-26T18:35:00.871Z,7.21
2018-01-26T18:36:28.385Z,7.22
2018-01-26T18:37:55.595Z,7.21
2018-01-26T18:39:22.702Z,7.21
2018-01-26T18:40:49.919Z,7.21
2018-01-26T18:42:17.300Z,7.17
2018-01-26T18:43:45.446Z,7.14
2018-01-26T18:45:11.508Z,7.10
2018-01-26T18:46:38.739Z,7.09
2018-01-26T18:48:05.983Z,7.12
2018-01-26T18:49:32.890Z,7.15
2018-01-26T18:51:00.214Z,7.14
2018-01-26T18:52:28.517Z,7.14
2018-01-26T18:53:54.774Z,7.13
2018-01-26T18:55:22.851Z,7.14
2018-01-26T18:56:49.941Z,7.10
2018-01-26T18:58:16.148Z,7.08
2018-01-26T18:59:43.427Z,7.11
2018-01-26T19:01:10.909Z,7.14
2018-01-26T19:02:39.134Z,7.17
2018-01-26T19:04:06.423Z,7.20
2018-01-26T19:05:32.729Z,7.20
2018-01-26T19:06:59.939Z,7.19
2018-01-26T19:08:27.101Z,7.17
2018-01-26T19:09:54.411Z,7.16
2018-01-26T19:11:22.382Z,7.15
2018-01-26T19:12:49.451Z,7.13
2018-01-26T19:14:15.743Z,7.13
2018-01-26T19:15:44.162Z,7.13
2018-01-26T19:17:10.265Z,7.14
2018-01-26T19:18:37.098Z,7.10
2018-01-26T19:20:04.302Z,7.07
2018-01-26T19:21:32.267Z,7.08